sensor_id;sensor_type;location;lat;lon;timestamp;temperature;humidity
7540;DHT22;3811;49.006;12.076;2023-08-24T00:07:00;18.30;1.00
7540;DHT22;3811;49.006;12.076;2023-08-24T00:14:23;18.20;30.70
7540;DHT22;3811;49.006;12.076;2023-08-24T00:53:45;18.10;99.90
7540;DHT22;3811;49.006;12.076;2023-08-24T01:11:04;17.80;99.90
7540;DHT22;3811;49.006;12.076;2023-08-24T01:13:47;17.70;99.90
7540;DHT22;3811;49.006;12.076;2023-08-24T01:16:18;17.60;99.90
7540;DHT22;3811;49.006;12.076;2023-08-24T01:18:47;17.60;99.90
7540;DHT22;3811;49.006;12.076;2023-08-24T01:23:53;17.70;99.90
7540;DHT22;3811;49.006;12.076;2023-08-24T01:26:22;17.70;99.90
7540;DHT22;3811;49.006;12.076;2023-08-24T01:28:49;17.60;99.90
7540;DHT22;3811;49.006;12.076;2023-08-24T01:31:17;17.60;99.90
7540;DHT22;3811;49.006;12.076;2023-08-24T01:36:13;17.50;99.90
7540;DHT22;3811;49.006;12.076;2023-08-24T01:41:12;17.50;99.90
7540;DHT22;3811;49.006;12.076;2023-08-24T01:43:44;17.60;99.90
7540;DHT22;3811;49.006;12.076;2023-08-24T01:46:14;17.60;99.90
7540;DHT22;3811;49.006;12.076;2023-08-24T01:48:42;17.40;99.90
7540;DHT22;3811;49.006;12.076;2023-08-24T01:53:38;17.60;99.90
7540;DHT22;3811;49.006;12.076;2023-08-24T01:56:08;17.60;99.90
7540;DHT22;3811;49.006;12.076;2023-08-24T02:01:05;17.50;99.90
7540;DHT22;3811;49.006;12.076;2023-08-24T02:03:32;17.50;99.90
7540;DHT22;3811;49.006;12.076;2023-08-24T02:25:42;17.30;99.90
7540;DHT22;3811;49.006;12.076;2023-08-24T02:52:45;17.10;99.90
7540;DHT22;3811;49.006;12.076;2023-08-24T03:00:08;16.90;99.90
7540;DHT22;3811;49.006;12.076;2023-08-24T03:05:08;16.80;99.90
7540;DHT22;3811;49.006;12.076;2023-08-24T03:10:06;16.70;99.90
7540;DHT22;3811;49.006;12.076;2023-08-24T03:29:46;16.60;99.90
7540;DHT22;3811;49.006;12.076;2023-08-24T03:34:40;16.50;99.90
7540;DHT22;3811;49.006;12.076;2023-08-24T03:39:36;16.50;99.90
7540;DHT22;3811;49.006;12.076;2023-08-24T04:06:44;16.40;99.90
7540;DHT22;3811;49.006;12.076;2023-08-24T04:26:23;16.50;99.90
7540;DHT22;3811;49.006;12.076;2023-08-24T04:41:09;16.90;99.90
7540;DHT22;3811;49.006;12.076;2023-08-24T04:43:37;16.90;99.90
7540;DHT22;3811;49.006;12.076;2023-08-24T05:18:04;17.40;99.90
7540;DHT22;3811;49.006;12.076;2023-08-24T05:22:58;17.50;99.90
7540;DHT22;3811;49.006;12.076;2023-08-24T05:25:25;17.40;99.90
7540;DHT22;3811;49.006;12.076;2023-08-24T05:40:10;17.60;99.90
7540;DHT22;3811;49.006;12.076;2023-08-24T05:45:06;17.70;99.90
7540;DHT22;3811;49.006;12.076;2023-08-24T06:07:13;18.30;99.90
7540;DHT22;3811;49.006;12.076;2023-08-24T06:12:08;18.40;54.70
7540;DHT22;3811;49.006;12.076;2023-08-24T06:24:25;18.70;1.00
7540;DHT22;3811;49.006;12.076;2023-08-24T06:31:47;18.80;1.00
7540;DHT22;3811;49.006;12.076;2023-08-24T06:36:43;18.90;1.00
7540;DHT22;3811;49.006;12.076;2023-08-24T06:53:57;19.30;1.00
7540;DHT22;3811;49.006;12.076;2023-08-24T07:11:09;19.90;1.00
7540;DHT22;3811;49.006;12.076;2023-08-24T07:23:25;20.50;99.90
7540;DHT22;3811;49.006;12.076;2023-08-24T07:28:21;20.70;99.90
7540;DHT22;3811;49.006;12.076;2023-08-24T07:30:47;20.80;99.90
7540;DHT22;3811;49.006;12.076;2023-08-24T07:43:03;22.00;99.90
7540;DHT22;3811;49.006;12.076;2023-08-24T07:45:32;22.20;99.90
7540;DHT22;3811;49.006;12.076;2023-08-24T07:47:59;22.30;99.90
7540;DHT22;3811;49.006;12.076;2023-08-24T07:55:21;22.20;99.90
7540;DHT22;3811;49.006;12.076;2023-08-24T08:00:15;22.40;99.90
7540;DHT22;3811;49.006;12.076;2023-08-24T08:02:44;22.50;99.90
7540;DHT22;3811;49.006;12.076;2023-08-24T08:10:06;23.30;99.90
7540;DHT22;3811;49.006;12.076;2023-08-24T08:15:00;23.40;99.90
7540;DHT22;3811;49.006;12.076;2023-08-24T08:42:11;23.80;99.90
7540;DHT22;3811;49.006;12.076;2023-08-24T08:47:07;24.10;99.90
7540;DHT22;3811;49.006;12.076;2023-08-24T08:49:36;24.20;99.90
7540;DHT22;3811;49.006;12.076;2023-08-24T08:59:28;25.00;61.60
7540;DHT22;3811;49.006;12.076;2023-08-24T09:01:56;25.20;28.60
7540;DHT22;3811;49.006;12.076;2023-08-24T09:04:24;25.30;13.80
7540;DHT22;3811;49.006;12.076;2023-08-24T09:11:47;25.90;1.00
7540;DHT22;3811;49.006;12.076;2023-08-24T09:19:11;26.00;1.00
7540;DHT22;3811;49.006;12.076;2023-08-24T09:29:13;26.70;1.00
7540;DHT22;3811;49.006;12.076;2023-08-24T09:31:40;26.80;1.00
7540;DHT22;3811;49.006;12.076;2023-08-24T09:39:05;27.00;1.00
7540;DHT22;3811;49.006;12.076;2023-08-24T09:41:39;27.20;99.90
7540;DHT22;3811;49.006;12.076;2023-08-24T09:44:06;27.10;99.90
7540;DHT22;3811;49.006;12.076;2023-08-24T09:46:34;27.20;99.90
7540;DHT22;3811;49.006;12.076;2023-08-24T09:51:29;27.70;99.90
7540;DHT22;3811;49.006;12.076;2023-08-24T09:53:57;27.90;99.90
7540;DHT22;3811;49.006;12.076;2023-08-24T09:56:25;28.20;99.90
7540;DHT22;3811;49.006;12.076;2023-08-24T09:58:54;28.50;99.90
7540;DHT22;3811;49.006;12.076;2023-08-24T10:01:25;28.60;99.90
7540;DHT22;3811;49.006;12.076;2023-08-24T10:03:54;28.50;99.90
7540;DHT22;3811;49.006;12.076;2023-08-24T10:06:23;28.70;99.90
7540;DHT22;3811;49.006;12.076;2023-08-24T10:08:56;28.90;99.10
7540;DHT22;3811;49.006;12.076;2023-08-24T10:11:28;29.10;29.30
7540;DHT22;3811;49.006;12.076;2023-08-24T10:14:00;29.20;11.60
7540;DHT22;3811;49.006;12.076;2023-08-24T10:21:27;29.50;1.00
7540;DHT22;3811;49.006;12.076;2023-08-24T10:23:55;29.60;1.00
7540;DHT22;3811;49.006;12.076;2023-08-24T10:26:23;29.50;1.00
7540;DHT22;3811;49.006;12.076;2023-08-24T10:28:50;29.50;1.00
7540;DHT22;3811;49.006;12.076;2023-08-24T10:31:18;29.50;1.00
7540;DHT22;3811;49.006;12.076;2023-08-24T10:33:46;29.60;1.00
7540;DHT22;3811;49.006;12.076;2023-08-24T10:36:15;29.90;1.00
7540;DHT22;3811;49.006;12.076;2023-08-24T10:43:40;30.30;1.00
7540;DHT22;3811;49.006;12.076;2023-08-24T10:46:12;30.30;1.00
7540;DHT22;3811;49.006;12.076;2023-08-24T10:48:57;30.50;1.00
7540;DHT22;3811;49.006;12.076;2023-08-24T10:51:26;30.50;1.00
7540;DHT22;3811;49.006;12.076;2023-08-24T10:53:56;30.30;99.90
7540;DHT22;3811;49.006;12.076;2023-08-24T10:56:32;30.20;99.90
7540;DHT22;3811;49.006;12.076;2023-08-24T10:59:13;30.30;99.90
7540;DHT22;3811;49.006;12.076;2023-08-24T11:01:41;30.50;99.90
7540;DHT22;3811;49.006;12.076;2023-08-24T11:06:51;30.80;99.90
7540;DHT22;3811;49.006;12.076;2023-08-24T11:09:19;31.00;99.90
7540;DHT22;3811;49.006;12.076;2023-08-24T11:11:56;31.10;99.90
7540;DHT22;3811;49.006;12.076;2023-08-24T11:16:52;31.20;99.90
7540;DHT22;3811;49.006;12.076;2023-08-24T11:19:20;31.30;99.90
7540;DHT22;3811;49.006;12.076;2023-08-24T11:24:16;31.40;99.90
7540;DHT22;3811;49.006;12.076;2023-08-24T11:26:44;31.30;99.90
7540;DHT22;3811;49.006;12.076;2023-08-24T11:31:39;31.40;99.90
7540;DHT22;3811;49.006;12.076;2023-08-24T11:34:07;31.50;99.90
7540;DHT22;3811;49.006;12.076;2023-08-24T11:36:42;31.70;99.90
7540;DHT22;3811;49.006;12.076;2023-08-24T11:39:15;31.70;99.90
7540;DHT22;3811;49.006;12.076;2023-08-24T11:41:45;31.70;99.90
7540;DHT22;3811;49.006;12.076;2023-08-24T11:46:41;31.40;99.90
7540;DHT22;3811;49.006;12.076;2023-08-24T11:51:36;31.50;99.90
7540;DHT22;3811;49.006;12.076;2023-08-24T11:56:32;31.70;99.90
7540;DHT22;3811;49.006;12.076;2023-08-24T12:03:54;32.10;99.90
7540;DHT22;3811;49.006;12.076;2023-08-24T12:11:17;32.10;99.90
7540;DHT22;3811;49.006;12.076;2023-08-24T12:13:48;30.20;99.90
7540;DHT22;3811;49.006;12.076;2023-08-24T12:18:47;32.70;96.50
7540;DHT22;3811;49.006;12.076;2023-08-24T12:23:42;33.30;99.80
7540;DHT22;3811;49.006;12.076;2023-08-24T12:26:17;33.60;84.90
7540;DHT22;3811;49.006;12.076;2023-08-24T12:28:50;33.50;58.10
7540;DHT22;3811;49.006;12.076;2023-08-24T12:33:45;32.30;24.10
7540;DHT22;3811;49.006;12.076;2023-08-24T12:38:40;32.30;42.80
7540;DHT22;3811;49.006;12.076;2023-08-24T12:41:08;32.60;42.20
7540;DHT22;3811;49.006;12.076;2023-08-24T13:00:46;31.80;2.10
7540;DHT22;3811;49.006;12.076;2023-08-24T13:03:15;31.80;1.00
7540;DHT22;3811;49.006;12.076;2023-08-24T13:05:42;31.60;1.00
7540;DHT22;3811;49.006;12.076;2023-08-24T13:08:12;31.50;1.00
7540;DHT22;3811;49.006;12.076;2023-08-24T13:13:08;31.80;1.00
7540;DHT22;3811;49.006;12.076;2023-08-24T13:27:52;31.80;1.00
7540;DHT22;3811;49.006;12.076;2023-08-24T13:37:44;34.00;1.00
7540;DHT22;3811;49.006;12.076;2023-08-24T13:40:11;34.20;1.00
7540;DHT22;3811;49.006;12.076;2023-08-24T13:45:06;33.80;1.00
7540;DHT22;3811;49.006;12.076;2023-08-24T13:59:51;34.10;1.00
7540;DHT22;3811;49.006;12.076;2023-08-24T14:02:18;33.70;1.00
7540;DHT22;3811;49.006;12.076;2023-08-24T14:12:08;33.40;1.00
7540;DHT22;3811;49.006;12.076;2023-08-24T14:14:35;33.50;1.00
7540;DHT22;3811;49.006;12.076;2023-08-24T14:29:19;34.20;1.00
7540;DHT22;3811;49.006;12.076;2023-08-24T14:31:46;34.30;1.00
7540;DHT22;3811;49.006;12.076;2023-08-24T14:36:40;33.00;1.00
7540;DHT22;3811;49.006;12.076;2023-08-24T14:46:30;31.50;1.00
7540;DHT22;3811;49.006;12.076;2023-08-24T14:51:25;31.20;1.00
7540;DHT22;3811;49.006;12.076;2023-08-24T15:03:44;31.70;1.00
7540;DHT22;3811;49.006;12.076;2023-08-24T15:08:38;31.80;1.00
7540;DHT22;3811;49.006;12.076;2023-08-24T15:20:57;31.50;1.00
7540;DHT22;3811;49.006;12.076;2023-08-24T15:23:25;30.80;1.00
7540;DHT22;3811;49.006;12.076;2023-08-24T15:25:54;30.50;1.00
7540;DHT22;3811;49.006;12.076;2023-08-24T15:28:21;30.40;1.00
7540;DHT22;3811;49.006;12.076;2023-08-24T15:30:49;30.40;1.00
7540;DHT22;3811;49.006;12.076;2023-08-24T15:33:16;30.50;1.00
7540;DHT22;3811;49.006;12.076;2023-08-24T15:35:43;30.50;1.00
7540;DHT22;3811;49.006;12.076;2023-08-24T15:38:11;30.50;1.00
7540;DHT22;3811;49.006;12.076;2023-08-24T15:45:36;30.60;1.00
7540;DHT22;3811;49.006;12.076;2023-08-24T15:48:03;30.80;1.00
7540;DHT22;3811;49.006;12.076;2023-08-24T15:50:30;30.80;1.00
7540;DHT22;3811;49.006;12.076;2023-08-24T15:52:57;30.60;1.00
7540;DHT22;3811;49.006;12.076;2023-08-24T15:55:28;30.70;1.00
7540;DHT22;3811;49.006;12.076;2023-08-24T15:57:59;30.60;1.00
7540;DHT22;3811;49.006;12.076;2023-08-24T16:10:32;29.70;1.00
7540;DHT22;3811;49.006;12.076;2023-08-24T16:17:53;29.40;1.00
7540;DHT22;3811;49.006;12.076;2023-08-24T16:22:47;29.40;1.00
7540;DHT22;3811;49.006;12.076;2023-08-24T16:27:43;29.00;1.00
7540;DHT22;3811;49.006;12.076;2023-08-24T16:30:11;28.70;1.00
7540;DHT22;3811;49.006;12.076;2023-08-24T16:35:05;28.30;1.00
7540;DHT22;3811;49.006;12.076;2023-08-24T16:37:32;28.20;1.00
7540;DHT22;3811;49.006;12.076;2023-08-24T16:44:55;27.80;49.00
7540;DHT22;3811;49.006;12.076;2023-08-24T16:47:22;27.60;73.00
7540;DHT22;3811;49.006;12.076;2023-08-24T16:52:15;27.80;90.70
7540;DHT22;3811;49.006;12.076;2023-08-24T16:57:09;27.60;99.90
7540;DHT22;3811;49.006;12.076;2023-08-24T17:02:05;27.50;99.90
7540;DHT22;3811;49.006;12.076;2023-08-24T17:04:32;27.50;99.90
7540;DHT22;3811;49.006;12.076;2023-08-24T17:06:59;27.40;99.90
7540;DHT22;3811;49.006;12.076;2023-08-24T17:11:53;27.30;99.90
7540;DHT22;3811;49.006;12.076;2023-08-24T17:16:47;27.00;99.90
7540;DHT22;3811;49.006;12.076;2023-08-24T17:19:15;27.00;99.90
7540;DHT22;3811;49.006;12.076;2023-08-24T17:29:06;26.60;1.00
7540;DHT22;3811;49.006;12.076;2023-08-24T17:36:30;26.30;1.00
7540;DHT22;3811;49.006;12.076;2023-08-24T17:43:53;26.10;99.90
7540;DHT22;3811;49.006;12.076;2023-08-24T18:28:14;25.50;99.90
7540;DHT22;3811;49.006;12.076;2023-08-24T18:42:58;25.00;1.00
7540;DHT22;3811;49.006;12.076;2023-08-24T18:45:26;24.90;1.00
7540;DHT22;3811;49.006;12.076;2023-08-24T19:00:10;24.90;1.00
7540;DHT22;3811;49.006;12.076;2023-08-24T19:02:39;24.90;1.00
7540;DHT22;3811;49.006;12.076;2023-08-24T19:05:07;24.70;1.00
7540;DHT22;3811;49.006;12.076;2023-08-24T19:14:56;24.40;1.00
7540;DHT22;3811;49.006;12.076;2023-08-24T19:17:24;24.30;1.00
7540;DHT22;3811;49.006;12.076;2023-08-24T19:19:52;24.30;1.00
7540;DHT22;3811;49.006;12.076;2023-08-24T19:37:04;23.70;1.00
7540;DHT22;3811;49.006;12.076;2023-08-24T20:11:30;23.40;1.00
7540;DHT22;3811;49.006;12.076;2023-08-24T20:28:44;23.60;1.00
7540;DHT22;3811;49.006;12.076;2023-08-24T21:40:06;20.30;99.90
7540;DHT22;3811;49.006;12.076;2023-08-24T21:52:22;19.90;1.00
7540;DHT22;3811;49.006;12.076;2023-08-24T22:07:12;19.50;1.00
7540;DHT22;3811;49.006;12.076;2023-08-24T22:34:18;19.20;1.00
7540;DHT22;3811;49.006;12.076;2023-08-24T22:39:13;19.30;1.00
7540;DHT22;3811;49.006;12.076;2023-08-24T22:44:07;19.20;1.00
7540;DHT22;3811;49.006;12.076;2023-08-24T23:01:20;19.20;1.00
7540;DHT22;3811;49.006;12.076;2023-08-24T23:03:49;19.30;1.00
7540;DHT22;3811;49.006;12.076;2023-08-24T23:06:18;19.40;1.00
7540;DHT22;3811;49.006;12.076;2023-08-24T23:08:46;19.40;1.00
7540;DHT22;3811;49.006;12.076;2023-08-24T23:11:16;19.40;1.00
7540;DHT22;3811;49.006;12.076;2023-08-24T23:18:37;19.50;5.20
7540;DHT22;3811;49.006;12.076;2023-08-24T23:21:05;19.60;11.90
7540;DHT22;3811;49.006;12.076;2023-08-24T23:25:59;19.60;18.70
7540;DHT22;3811;49.006;12.076;2023-08-24T23:33:21;19.30;23.40
7540;DHT22;3811;49.006;12.076;2023-08-24T23:38:16;19.20;40.20
7540;DHT22;3811;49.006;12.076;2023-08-24T23:40:43;19.20;20.10
7540;DHT22;3811;49.006;12.076;2023-08-24T23:48:04;14.70;32.50
7540;DHT22;3811;49.006;12.076;2023-08-24T23:55:27;19.20;46.10
